Terminal Aerodrome Forecast
Issued by NWS

Home | Current Version | Previous Version | Text Only | Print | Product List | Glossary On
Versions: 1 2 3 4 5 6 7 8 9 10 11 12 13 14 15 16 17 18 19 20 21 22 23 24 25 26 27 28 29 30 31 32 33 34 35 36 37 38 39 40 41 42 43 44 45 46 47 48 49 50
000
FTUS41 KBOX 280930 AAA
TAFMHT
TAF AMD
KMHT 280930Z 2810/2906 32006KT 4SM -SN BR SCT025 OVC040
     FM281100 34004KT 2SM -SN BR OVC025
     FM281500 33005KT P6SM OVC035
     FM281700 33006KT P6SM BKN100
     FM282200 31006KT P6SM SCT250
     FM290400 00000KT P6SM SCT250=

USA.gov is the U.S. government's official web portal to all federal, state and local government web resources and services.